KSGU

Details ICAO KSGU (SGU)
Name [X] St George Muni
Region United States
Timezone America/Denver (UTC-6.0)
Plans Departing 52
Arriving 46
Stats Elevation 2,941 ft / 896 m (AMSL)
Location 37.090590° -113.593075°
Runways 1
Magnetic Variation 11.344° E
Sunrise 2018-05-21 12:23:02 UTC / 2018-05-21 06:23:02 Local
Sunset 2018-05-22 02:41:47 UTC / 2018-05-21 20:41:47 Local
Advertisement - Login to hide

Runways

ID Width Length Bearing (true) Bearing (mag) Surface Threshold Offset Overrun Length
16 98 ft / 30 m 6,612 ft / 2,015 m 180.21° 168.87° Asphalt 194 ft / 59 m 151 ft / 46 m
34 98 ft / 30 m 6,612 ft / 2,015 m 0.21° 348.87° Asphalt 0 ft / 0 m 0 ft / 0 m

Map

Weather


0- 5 10 15 20 25 30 35+ Temperature / ° C

Clouds and Precipitation
Forecast for 2018-05-21 06:00 UTC. Updated 2 hours ago

Ground ~20,000 ft ~40,000 ft Winds

METAR

KSGU 210656Z AUTO 13011KT 10SM CLR 22/M02 A2979 RMK AO2 SLP052 T02221022 403170167

TAF

KSGU 210550Z 2106/2206 13007KT P6SM FEW150 FM211600 20008KT P6SM SCT120 FM220300 VRB04KT P6SM OVC200
Warning: Do not use this data for real-world aviation or navigation. No guarantee of current accuracy is given.